createdAt,value
2024-02-24T00:02:20.725Z,11.25
2024-02-24T00:04:47.994Z,12.25
2024-02-24T00:07:15.118Z,12.68
2024-02-24T00:09:42.248Z,12.90
2024-02-24T00:12:09.652Z,14.85
2024-02-24T00:14:36.931Z,13.70
2024-02-24T00:17:04.226Z,13.05
2024-02-24T00:19:31.528Z,12.77
2024-02-24T00:21:58.738Z,13.13
2024-02-24T00:24:26.127Z,11.13
2024-02-24T00:26:53.165Z,14.13
2024-02-24T00:29:20.450Z,13.07
2024-02-24T00:31:47.817Z,15.85
2024-02-24T00:34:14.963Z,11.85
2024-02-24T00:36:42.201Z,17.50
2024-02-24T00:39:09.555Z,11.88
2024-02-24T00:41:37.501Z,13.70
2024-02-24T00:44:05.318Z,12.98
2024-02-24T00:46:32.832Z,12.40
2024-02-24T00:48:59.916Z,11.50
2024-02-24T00:51:27.077Z,13.88
2024-02-24T00:53:54.214Z,9.90
2024-02-24T00:56:22.875Z,14.55
2024-02-24T00:58:50.140Z,16.40
2024-02-24T01:01:17.270Z,15.00
2024-02-24T01:03:44.565Z,18.85
2024-02-24T01:06:11.701Z,14.02
2024-02-24T01:08:38.878Z,14.80
2024-02-24T01:11:07.952Z,12.18
2024-02-24T01:13:35.319Z,13.15
2024-02-24T01:16:02.504Z,16.17
2024-02-24T01:18:30.006Z,13.25
2024-02-24T01:20:57.422Z,12.60
2024-02-24T01:23:25.919Z,11.10
2024-02-24T01:25:53.041Z,10.00
2024-02-24T01:28:20.241Z,10.20
2024-02-24T01:30:47.577Z,8.00
2024-02-24T01:33:14.882Z,8.60
2024-02-24T01:35:42.141Z,10.38
2024-02-24T01:38:09.324Z,13.70
2024-02-24T01:40:36.565Z,10.25
2024-02-24T01:43:04.394Z,11.15
2024-02-24T01:45:31.554Z,11.80
2024-02-24T01:47:58.966Z,11.23
2024-02-24T01:50:26.701Z,12.95
2024-02-24T01:52:54.428Z,14.38
2024-02-24T01:55:21.805Z,11.20
2024-02-24T01:57:52.505Z,13.82
2024-02-24T02:00:19.671Z,11.32
2024-02-24T02:02:47.180Z,12.57
2024-02-24T02:05:15.088Z,14.18
2024-02-24T02:07:42.191Z,12.20
2024-02-24T02:10:09.794Z,13.20
2024-02-24T02:12:37.541Z,9.93
2024-02-24T02:15:05.310Z,8.32
2024-02-24T02:17:32.761Z,13.83
2024-02-24T02:20:04.836Z,13.25
2024-02-24T02:22:33.414Z,13.50
2024-02-24T02:25:00.707Z,11.93
2024-02-24T02:27:27.884Z,15.38
2024-02-24T02:29:55.041Z,11.10
2024-02-24T02:32:22.248Z,13.15
2024-02-24T02:34:49.451Z,10.50
2024-02-24T02:37:16.546Z,10.63
2024-02-24T02:39:43.627Z,9.40
2024-02-24T02:42:11.431Z,9.10
2024-02-24T02:44:38.530Z,7.85
2024-02-24T02:47:14.531Z,7.93
2024-02-24T02:49:44.788Z,8.70
2024-02-24T02:52:12.102Z,7.15
2024-02-24T02:54:39.200Z,10.70
2024-02-24T02:57:06.335Z,9.18
2024-02-24T02:59:37.187Z,9.68
2024-02-24T03:02:04.765Z,9.70
2024-02-24T03:04:32.131Z,12.52
2024-02-24T03:06:59.228Z,10.68
2024-02-24T03:09:26.359Z,9.10
2024-02-24T03:11:53.569Z,9.68
2024-02-24T03:14:21.417Z,10.20
2024-02-24T03:16:50.355Z,11.68
2024-02-24T03:19:17.935Z,10.93
2024-02-24T03:21:45.015Z,10.77
2024-02-24T03:24:12.218Z,10.30
2024-02-24T03:26:41.280Z,10.98
2024-02-24T03:29:08.492Z,9.97
2024-02-24T03:31:35.717Z,10.00
2024-02-24T03:34:03.020Z,9.73
2024-02-24T03:36:30.274Z,8.85
2024-02-24T03:38:57.426Z,9.63
2024-02-24T03:41:24.596Z,10.52
2024-02-24T03:43:52.042Z,12.93
2024-02-24T03:46:19.178Z,8.90
2024-02-24T03:48:47.719Z,12.27
2024-02-24T03:51:15.012Z,8.95
2024-02-24T03:53:42.199Z,8.82
2024-02-24T03:56:09.431Z,10.97
2024-02-24T03:58:36.662Z,9.52
2024-02-24T04:01:04.289Z,9.57
2024-02-24T04:03:31.414Z,8.87
2024-02-24T04:05:58.718Z,10.55
2024-02-24T04:08:25.950Z,11.50
2024-02-24T04:10:53.170Z,11.48
2024-02-24T04:13:21.672Z,13.52
2024-02-24T04:15:49.638Z,15.85
2024-02-24T04:18:17.106Z,16.30
2024-02-24T04:20:48.562Z,11.27
2024-02-24T04:23:16.063Z,11.25
2024-02-24T04:25:43.269Z,17.05
2024-02-24T04:28:11.111Z,13.32
2024-02-24T04:30:39.238Z,12.18
2024-02-24T04:33:07.053Z,14.75
2024-02-24T04:35:34.615Z,11.40
2024-02-24T04:38:07.778Z,13.40
2024-02-24T04:40:37.118Z,12.60
2024-02-24T04:43:04.458Z,12.27
2024-02-24T04:45:31.627Z,13.50
2024-02-24T04:47:59.004Z,12.85
2024-02-24T04:50:26.517Z,12.40
2024-02-24T04:52:53.741Z,17.75
2024-02-24T04:55:21.025Z,16.70
2024-02-24T04:57:48.288Z,14.23
2024-02-24T05:00:15.642Z,14.67
2024-02-24T05:02:42.880Z,12.25
2024-02-24T05:05:12.929Z,19.30
2024-02-24T05:07:40.321Z,15.10
2024-02-24T05:10:08.625Z,14.90
2024-02-24T05:12:37.367Z,10.95
2024-02-24T05:15:04.711Z,11.93
2024-02-24T05:17:31.878Z,9.73
2024-02-24T05:19:58.981Z,11.00
2024-02-24T05:22:26.615Z,10.93
2024-02-24T05:24:53.880Z,10.60
2024-02-24T05:27:21.320Z,9.27
2024-02-24T05:29:48.889Z,11.45
2024-02-24T05:32:18.369Z,15.50
2024-02-24T05:34:45.896Z,13.45
2024-02-24T05:37:13.254Z,12.85
2024-02-24T05:39:40.350Z,13.38
2024-02-24T05:42:07.867Z,10.85
2024-02-24T05:44:35.311Z,11.87
2024-02-24T05:47:02.518Z,9.63
2024-02-24T05:49:29.746Z,10.27
2024-02-24T05:51:57.058Z,11.80
2024-02-24T05:54:24.585Z,13.27
2024-02-24T05:56:52.133Z,9.85
2024-02-24T05:59:20.378Z,11.70
2024-02-24T06:01:47.663Z,9.83
2024-02-24T06:04:17.100Z,11.63
2024-02-24T06:06:44.559Z,12.38
2024-02-24T06:09:11.693Z,10.77
2024-02-24T06:11:38.883Z,15.98
2024-02-24T06:14:06.107Z,15.13
2024-02-24T06:16:33.150Z,15.85
2024-02-24T06:19:00.743Z,17.33
2024-02-24T06:21:29.674Z,18.48
2024-02-24T06:23:56.810Z,17.00
2024-02-24T06:26:24.065Z,17.15
2024-02-24T06:28:51.097Z,21.75
2024-02-24T06:31:19.545Z,15.07
2024-02-24T06:33:46.728Z,15.73
2024-02-24T06:36:13.957Z,16.38
2024-02-24T06:38:41.173Z,20.27
2024-02-24T06:41:08.351Z,17.98
2024-02-24T06:43:35.555Z,21.52
2024-02-24T06:46:02.685Z,18.13
2024-02-24T06:48:30.047Z,20.70
2024-02-24T06:50:57.417Z,21.00
2024-02-24T06:53:24.533Z,26.33
2024-02-24T06:55:51.574Z,27.50
2024-02-24T06:58:18.759Z,31.20
2024-02-24T07:00:45.851Z,21.42
2024-02-24T07:03:13.140Z,24.85
2024-02-24T07:05:40.391Z,28.00
2024-02-24T07:08:07.842Z,22.35
2024-02-24T07:10:34.984Z,18.57
2024-02-24T07:13:02.079Z,22.52
2024-02-24T07:15:29.660Z,20.50
2024-02-24T07:17:56.855Z,26.88
2024-02-24T07:20:24.060Z,25.92
2024-02-24T07:22:51.252Z,26.55
2024-02-24T07:25:18.509Z,24.47
2024-02-24T07:27:45.611Z,23.40
2024-02-24T07:30:13.225Z,22.88
2024-02-24T07:32:41.999Z,27.17
2024-02-24T07:35:11.104Z,27.30
2024-02-24T07:37:38.245Z,23.03
2024-02-24T07:40:05.948Z,28.45
2024-02-24T07:42:33.063Z,20.97
2024-02-24T07:45:00.487Z,26.13
2024-02-24T07:47:29.241Z,25.35
2024-02-24T07:49:56.402Z,23.42
2024-02-24T07:52:23.497Z,23.50
2024-02-24T07:54:50.991Z,22.55
2024-02-24T07:57:18.064Z,26.70
2024-02-24T07:59:45.223Z,31.10
2024-02-24T08:02:12.361Z,21.92
2024-02-24T08:04:39.560Z,25.17
2024-02-24T08:07:06.695Z,27.70
2024-02-24T08:09:33.950Z,24.58
2024-02-24T08:12:01.473Z,22.45
2024-02-24T08:14:28.678Z,27.00
2024-02-24T08:16:55.865Z,25.70
2024-02-24T08:19:23.003Z,24.57
2024-02-24T08:21:51.339Z,25.35
2024-02-24T08:24:18.503Z,31.88
2024-02-24T08:26:46.871Z,34.13
2024-02-24T08:29:14.156Z,24.25
2024-02-24T08:31:41.552Z,26.48
2024-02-24T08:34:08.908Z,25.73
2024-02-24T08:36:36.999Z,23.73
2024-02-24T08:39:04.875Z,25.53
2024-02-24T08:41:33.493Z,17.80
2024-02-24T08:44:02.942Z,18.83
2024-02-24T08:46:31.062Z,16.67
2024-02-24T08:48:59.086Z,17.85
2024-02-24T08:51:27.550Z,17.75
2024-02-24T08:53:55.274Z,18.40
2024-02-24T08:56:24.517Z,19.45
2024-02-24T08:58:51.987Z,18.30
2024-02-24T09:01:22.900Z,18.95
2024-02-24T09:03:50.491Z,17.02
2024-02-24T09:06:17.886Z,18.85
2024-02-24T09:08:47.328Z,23.50
2024-02-24T09:11:14.571Z,22.88
2024-02-24T09:13:42.190Z,21.05
2024-02-24T09:16:09.309Z,20.45
2024-02-24T09:18:36.481Z,16.45
2024-02-24T09:21:03.965Z,17.77
2024-02-24T09:23:31.313Z,19.10
2024-02-24T09:25:58.431Z,19.77
2024-02-24T09:28:25.547Z,20.87
2024-02-24T09:30:53.106Z,18.88
2024-02-24T09:33:21.148Z,19.17
2024-02-24T09:35:48.517Z,14.20
2024-02-24T09:38:15.677Z,18.38
2024-02-24T09:40:42.907Z,18.20
2024-02-24T09:43:10.052Z,15.10
2024-02-24T09:45:43.379Z,17.48
2024-02-24T09:48:12.319Z,19.85
2024-02-24T09:50:40.175Z,17.05
2024-02-24T09:53:08.615Z,18.10
2024-02-24T09:55:39.148Z,35.15
2024-02-24T09:58:10.786Z,28.10
2024-02-24T10:00:38.967Z,21.30
2024-02-24T10:03:06.723Z,29.45
2024-02-24T10:05:37.841Z,25.10
2024-02-24T10:08:05.481Z,23.83
2024-02-24T10:10:33.141Z,31.90
2024-02-24T10:13:02.593Z,23.03
2024-02-24T10:15:30.657Z,32.20
2024-02-24T10:17:59.148Z,24.00
2024-02-24T10:20:27.211Z,20.77
2024-02-24T10:22:55.340Z,20.13
2024-02-24T10:25:23.098Z,23.83
2024-02-24T10:27:50.352Z,25.65
2024-02-24T10:30:20.862Z,46.30
2024-02-24T10:32:52.248Z,39.17
2024-02-24T10:35:19.698Z,25.37
2024-02-24T10:38:03.956Z,24.57
2024-02-24T10:40:37.541Z,32.92
2024-02-24T10:43:06.172Z,32.27
2024-02-24T10:45:33.578Z,29.58
2024-02-24T10:48:00.794Z,30.00
2024-02-24T10:50:28.246Z,29.97
2024-02-24T10:52:56.971Z,27.67
2024-02-24T10:55:25.230Z,28.02
2024-02-24T10:57:53.938Z,30.70
2024-02-24T11:00:28.193Z,31.27
2024-02-24T11:02:55.935Z,35.57
2024-02-24T11:05:23.149Z,29.63
2024-02-24T11:07:50.426Z,36.42
2024-02-24T11:10:20.674Z,36.65
2024-02-24T11:12:52.057Z,32.78
2024-02-24T11:15:20.339Z,36.85
2024-02-24T11:17:54.482Z,35.13
2024-02-24T11:20:40.157Z,35.03
2024-02-24T11:23:33.493Z,48.27
2024-02-24T11:26:13.934Z,35.58
2024-02-24T11:28:42.554Z,37.92
2024-02-24T11:31:09.871Z,31.85
2024-02-24T11:33:39.149Z,72.55
2024-02-24T11:36:07.984Z,78.40
2024-02-24T11:38:35.643Z,79.03
2024-02-24T11:41:07.176Z,79.35
2024-02-24T11:43:34.856Z,63.38
2024-02-24T11:46:05.292Z,56.13
2024-02-24T11:48:32.721Z,64.15
2024-02-24T11:51:00.627Z,56.70
2024-02-24T11:53:29.148Z,58.97
2024-02-24T11:55:56.586Z,57.13
2024-02-24T11:58:23.853Z,54.58
2024-02-24T12:00:51.017Z,56.55
2024-02-24T12:03:18.186Z,57.03
2024-02-24T12:05:45.972Z,70.25
2024-02-24T12:08:17.359Z,69.40
2024-02-24T12:10:44.776Z,58.78
2024-02-24T12:13:17.113Z,49.05
2024-02-24T12:15:45.794Z,47.00
2024-02-24T12:18:13.756Z,45.33
2024-02-24T12:20:49.663Z,48.58
2024-02-24T12:23:20.429Z,46.38
2024-02-24T12:25:47.819Z,31.13
2024-02-24T12:28:14.978Z,30.80
2024-02-24T12:30:43.878Z,28.98
2024-02-24T12:33:18.216Z,28.50
2024-02-24T12:35:48.941Z,32.80
2024-02-24T12:38:19.589Z,29.75
2024-02-24T12:40:47.313Z,32.15
2024-02-24T12:43:14.536Z,26.77
2024-02-24T12:45:41.879Z,35.50
2024-02-24T12:48:09.597Z,27.58
2024-02-24T12:50:37.235Z,24.52
2024-02-24T12:53:10.560Z,23.60
2024-02-24T12:55:38.026Z,25.20
2024-02-24T12:58:05.376Z,24.17
2024-02-24T13:00:32.582Z,22.52
2024-02-24T13:03:01.081Z,28.50
2024-02-24T13:05:28.680Z,27.98
2024-02-24T13:07:56.297Z,24.30
2024-02-24T13:10:23.692Z,25.73
2024-02-24T13:12:50.841Z,21.83
2024-02-24T13:15:18.256Z,24.17
2024-02-24T13:17:48.629Z,24.42
2024-02-24T13:20:15.789Z,25.37
2024-02-24T13:22:43.294Z,22.65
2024-02-24T13:25:10.750Z,23.98
2024-02-24T13:27:38.159Z,29.77
2024-02-24T13:30:06.442Z,34.03
2024-02-24T13:32:34.219Z,22.00
2024-02-24T13:35:01.470Z,21.75
2024-02-24T13:37:29.300Z,27.90
2024-02-24T13:39:56.583Z,23.10
2024-02-24T13:42:23.888Z,23.80
2024-02-24T13:44:51.206Z,21.70
2024-02-24T13:47:18.897Z,21.93
2024-02-24T13:49:46.196Z,28.63
2024-02-24T13:52:13.337Z,30.63
2024-02-24T13:54:40.408Z,24.80
2024-02-24T13:57:07.668Z,23.40
2024-02-24T13:59:34.764Z,32.28
2024-02-24T14:02:02.018Z,42.25
2024-02-24T14:04:29.265Z,42.50
2024-02-24T14:06:57.622Z,35.88
2024-02-24T14:09:24.904Z,43.80
2024-02-24T14:11:54.263Z,36.85
2024-02-24T14:14:21.667Z,39.22
2024-02-24T14:16:48.815Z,34.75
2024-02-24T14:19:20.962Z,28.80
2024-02-24T14:21:49.852Z,24.90
2024-02-24T14:24:16.940Z,24.55
2024-02-24T14:26:44.170Z,33.38
2024-02-24T14:29:11.331Z,31.77
2024-02-24T14:31:38.400Z,32.22
2024-02-24T14:34:05.733Z,46.50
2024-02-24T14:36:32.856Z,34.25
2024-02-24T14:39:01.212Z,49.35
2024-02-24T14:41:28.937Z,44.38
2024-02-24T14:43:56.061Z,39.30
2024-02-24T14:46:23.168Z,48.10
2024-02-24T14:48:50.605Z,39.63
2024-02-24T14:51:21.099Z,44.63
2024-02-24T14:53:52.657Z,44.90
2024-02-24T14:56:20.419Z,43.45
2024-02-24T14:58:47.633Z,42.25
2024-02-24T15:01:15.891Z,54.20
2024-02-24T15:03:45.979Z,51.97
2024-02-24T15:06:16.335Z,51.50
2024-02-24T15:08:43.687Z,41.50
2024-02-24T15:11:11.099Z,52.67
2024-02-24T15:13:38.777Z,43.40
2024-02-24T15:16:06.726Z,28.95
2024-02-24T15:18:34.396Z,47.05
2024-02-24T15:21:01.854Z,37.33
2024-02-24T15:23:29.129Z,50.00
2024-02-24T15:25:56.175Z,60.55
2024-02-24T15:28:24.016Z,46.30
2024-02-24T15:30:51.194Z,72.63
2024-02-24T15:33:18.644Z,57.83
2024-02-24T15:35:45.925Z,68.65
2024-02-24T15:38:13.350Z,75.65
2024-02-24T15:40:42.339Z,65.93
2024-02-24T15:43:09.874Z,61.37
2024-02-24T15:45:36.976Z,73.18
2024-02-24T15:48:04.868Z,80.28
2024-02-24T15:50:32.227Z,81.85
2024-02-24T15:52:59.284Z,78.80
2024-02-24T15:55:26.533Z,87.28
2024-02-24T15:57:53.832Z,70.97
2024-02-24T16:00:24.227Z,59.50
2024-02-24T16:02:51.476Z,64.18
2024-02-24T16:05:19.639Z,92.82
2024-02-24T16:07:46.908Z,139.90
2024-02-24T16:10:14.210Z,110.77
2024-02-24T16:12:41.260Z,86.72
2024-02-24T16:15:08.766Z,113.18
2024-02-24T16:17:36.170Z,122.25
2024-02-24T16:20:04.209Z,94.15
2024-02-24T16:22:31.956Z,112.53
2024-02-24T16:24:59.222Z,103.88
2024-02-24T16:27:26.995Z,87.75
2024-02-24T16:29:54.367Z,85.15
2024-02-24T16:32:22.085Z,94.53
2024-02-24T16:34:49.629Z,100.55
2024-02-24T16:37:17.131Z,99.85
2024-02-24T16:39:44.910Z,91.30
2024-02-24T16:42:12.323Z,108.88
2024-02-24T16:44:39.478Z,111.45
2024-02-24T16:47:07.312Z,93.68
2024-02-24T16:49:34.817Z,99.27
2024-02-24T16:52:02.193Z,105.25
2024-02-24T16:54:29.467Z,98.65
2024-02-24T16:56:57.547Z,117.95
2024-02-24T16:59:24.658Z,109.55
2024-02-24T17:01:52.293Z,120.93
2024-02-24T17:04:20.121Z,108.15
2024-02-24T17:06:47.640Z,104.65
2024-02-24T17:09:15.537Z,104.63
2024-02-24T17:11:43.290Z,103.50
2024-02-24T17:14:10.770Z,54.92
2024-02-24T17:16:38.400Z,76.78
2024-02-24T17:19:05.631Z,76.80
2024-02-24T17:21:33.866Z,66.38
2024-02-24T17:24:01.006Z,58.78
2024-02-24T17:26:28.655Z,64.82
2024-02-24T17:28:55.902Z,66.93
2024-02-24T17:31:23.688Z,77.32
2024-02-24T17:33:51.051Z,79.45
2024-02-24T17:36:18.861Z,94.72
2024-02-24T17:38:46.116Z,62.72
2024-02-24T17:41:14.174Z,58.53
2024-02-24T17:43:41.951Z,42.93
2024-02-24T17:46:09.542Z,36.42
2024-02-24T17:48:37.108Z,44.85
2024-02-24T17:51:04.883Z,48.70
2024-02-24T17:53:32.247Z,62.00
2024-02-24T17:56:00.050Z,57.47
2024-02-24T17:58:36.252Z,47.13
2024-02-24T18:01:11.416Z,51.42
2024-02-24T18:03:39.245Z,78.07
2024-02-24T18:06:06.764Z,66.63
2024-02-24T18:08:34.197Z,69.68
2024-02-24T18:11:01.908Z,78.10
2024-02-24T18:13:29.300Z,69.90
2024-02-24T18:15:56.358Z,65.40
2024-02-24T18:18:24.372Z,65.80
2024-02-24T18:20:51.530Z,65.45
2024-02-24T18:23:19.061Z,71.93
2024-02-24T18:25:46.331Z,34.72
2024-02-24T18:28:13.715Z,34.63
2024-02-24T18:30:41.315Z,35.50
2024-02-24T18:33:09.482Z,28.75
2024-02-24T18:35:36.687Z,26.33
2024-02-24T18:38:04.556Z,35.35
2024-02-24T18:40:31.829Z,43.55
2024-02-24T18:42:59.149Z,49.38
2024-02-24T18:45:26.202Z,58.35
2024-02-24T18:47:53.916Z,67.23
2024-02-24T18:50:22.147Z,32.50
2024-02-24T18:52:49.750Z,33.97
2024-02-24T18:55:18.381Z,66.05
2024-02-24T18:57:45.680Z,62.22
2024-02-24T19:00:13.299Z,59.87
2024-02-24T19:02:43.765Z,51.05
2024-02-24T19:05:12.721Z,49.03
2024-02-24T19:07:42.012Z,61.67
2024-02-24T19:10:10.143Z,50.83
2024-02-24T19:12:37.583Z,45.33
2024-02-24T19:15:09.735Z,33.95
2024-02-24T19:17:37.489Z,25.17
2024-02-24T19:20:07.815Z,53.63
2024-02-24T19:22:35.698Z,58.90
2024-02-24T19:25:02.874Z,46.40
2024-02-24T19:27:30.455Z,43.65
2024-02-24T19:29:57.590Z,43.38
2024-02-24T19:32:25.186Z,80.18
2024-02-24T19:34:55.317Z,88.18
2024-02-24T19:37:22.898Z,40.05
2024-02-24T19:39:50.553Z,43.08
2024-02-24T19:42:18.667Z,61.92
2024-02-24T19:44:45.735Z,60.25
2024-02-24T19:47:13.725Z,73.78
2024-02-24T19:49:41.177Z,65.07
2024-02-24T19:52:08.745Z,57.55
2024-02-24T19:54:36.401Z,55.00
2024-02-24T19:57:04.291Z,60.83
2024-02-24T19:59:31.875Z,70.20
2024-02-24T20:02:01.177Z,61.47
2024-02-24T20:04:33.328Z,67.18
2024-02-24T20:07:01.057Z,74.80
2024-02-24T20:09:28.750Z,64.32
2024-02-24T20:11:56.119Z,67.55
2024-02-24T20:14:24.090Z,47.50
2024-02-24T20:16:51.760Z,33.15
2024-02-24T20:19:18.877Z,27.15
2024-02-24T20:21:46.240Z,30.08
2024-02-24T20:24:13.668Z,33.63
2024-02-24T20:26:41.362Z,36.53
2024-02-24T20:29:09.849Z,32.97
2024-02-24T20:31:37.335Z,36.63
2024-02-24T20:34:08.292Z,36.55
2024-02-24T20:36:37.471Z,31.45
2024-02-24T20:39:04.677Z,30.55
2024-02-24T20:41:32.141Z,31.53
2024-02-24T20:44:01.435Z,28.75
2024-02-24T20:46:31.822Z,31.95
2024-02-24T20:48:59.647Z,35.72
2024-02-24T20:51:27.871Z,28.75
2024-02-24T20:53:55.079Z,26.15
2024-02-24T20:56:22.803Z,27.25
2024-02-24T20:58:50.402Z,28.70
2024-02-24T21:01:17.803Z,42.42
2024-02-24T21:03:45.148Z,41.70
2024-02-24T21:06:12.629Z,34.42
2024-02-24T21:08:39.866Z,35.63
2024-02-24T21:11:08.519Z,39.85
2024-02-24T21:13:35.677Z,46.83
2024-02-24T21:16:03.095Z,43.50
2024-02-24T21:18:31.955Z,47.20
2024-02-24T21:20:59.697Z,45.38
2024-02-24T21:23:26.927Z,46.63
2024-02-24T21:25:53.990Z,50.17
2024-02-24T21:28:21.078Z,50.95
2024-02-24T21:30:48.891Z,51.72
2024-02-24T21:33:18.156Z,56.80
2024-02-24T21:35:45.607Z,55.47
2024-02-24T21:38:12.668Z,53.45
2024-02-24T21:40:42.225Z,45.80
2024-02-24T21:43:09.316Z,47.08
2024-02-24T21:45:36.599Z,43.50
2024-02-24T21:48:04.127Z,45.28
2024-02-24T21:50:31.339Z,45.60
2024-02-24T21:52:58.430Z,46.78
2024-02-24T21:55:26.314Z,48.38
2024-02-24T21:57:53.391Z,36.05
2024-02-24T22:00:20.731Z,42.47
2024-02-24T22:02:52.939Z,37.10
2024-02-24T22:05:20.280Z,30.20
2024-02-24T22:07:47.505Z,25.83
2024-02-24T22:10:14.812Z,27.33
2024-02-24T22:12:42.852Z,32.33
2024-02-24T22:15:14.112Z,32.20
2024-02-24T22:17:42.848Z,31.38
2024-02-24T22:20:11.115Z,30.75
2024-02-24T22:22:40.805Z,33.25
2024-02-24T22:25:08.358Z,33.13
2024-02-24T22:27:35.842Z,38.05
2024-02-24T22:30:12.658Z,37.53
2024-02-24T22:32:44.403Z,51.73
2024-02-24T22:35:11.980Z,42.38
2024-02-24T22:37:39.192Z,41.83
2024-02-24T22:40:06.984Z,39.17
2024-02-24T22:42:36.996Z,30.95
2024-02-24T22:45:06.104Z,28.35
2024-02-24T22:47:33.330Z,30.40
2024-02-24T22:50:00.925Z,31.88
2024-02-24T22:52:27.972Z,37.25
2024-02-24T22:54:55.594Z,38.55
2024-02-24T22:57:23.403Z,32.17
2024-02-24T22:59:50.775Z,35.00
2024-02-24T23:02:18.057Z,43.47
2024-02-24T23:04:45.288Z,40.60
2024-02-24T23:07:12.585Z,36.28
2024-02-24T23:09:39.776Z,43.75
2024-02-24T23:12:07.161Z,35.55
2024-02-24T23:14:34.342Z,39.60
2024-02-24T23:17:01.476Z,34.00
2024-02-24T23:19:29.851Z,33.33
2024-02-24T23:21:57.002Z,31.60
2024-02-24T23:24:27.293Z,31.75
2024-02-24T23:26:54.508Z,33.40
2024-02-24T23:29:21.907Z,34.00
2024-02-24T23:31:50.891Z,34.22
2024-02-24T23:34:18.274Z,30.45
2024-02-24T23:36:45.531Z,26.50
2024-02-24T23:39:12.744Z,26.23
2024-02-24T23:41:39.925Z,26.00
2024-02-24T23:44:07.139Z,28.27
2024-02-24T23:46:34.299Z,29.45
2024-02-24T23:49:02.220Z,45.35
2024-02-24T23:51:29.441Z,48.13
2024-02-24T23:53:59.705Z,49.58
2024-02-24T23:56:27.073Z,41.80
2024-02-24T23:58:54.215Z,39.72
